Time;durP1;ratioP1;P1;durP2;ratioP2;P2;SDS_P1;SDS_P2;PMS_P1;PMS_P2;Temp;Humidity;BMP_temperature;BMP_pressure;BME280_temperature;BME280_humidity;BME280_pressure;Samples;Min_cycle;Max_cycle;Signal;HPM_P1;HPM_P2
2023/01/04 00:00:44;;;;;;;;;1.00;1.00;;;;;11.94;71.97;102025.72;5033504;28;45488;-65
2023/01/04 00:03:11;;;;;;;;;1.00;1.00;;;;;11.97;72.29;102036.56;5047745;28;45166;-65
2023/01/04 00:05:36;;;;;;;;;2.00;2.00;;;;;11.88;72.51;102008.47;5045208;28;45002;-62
2023/01/04 00:08:02;;;;;;;;;4.33;2.33;;;;;12.01;72.61;102050.09;5048153;28;45030;-64
2023/01/04 00:10:27;;;;;;;;;5.67;2.00;;;;;11.82;71.88;102008.22;5052577;28;45782;-62
2023/01/04 00:12:52;;;;;;;;;3.33;1.00;;;;;11.96;72.41;102020.44;5052023;28;44971;-64
2023/01/04 00:15:18;;;;;;;;;4.00;1.67;;;;;12.04;72.05;102036.84;5046305;28;45009;-62
2023/01/04 00:17:43;;;;;;;;;3.00;2.00;;;;;12.07;72.34;102048.59;5041014;28;45185;-63
2023/01/04 00:20:09;;;;;;;;;2.00;2.00;;;;;11.98;72.63;102026.78;5030238;28;58282;-61
2023/01/04 00:22:34;;;;;;;;;2.00;2.00;;;;;12.00;71.75;102026.84;5036199;28;45143;-63
2023/01/04 00:25:00;;;;;;;;;2.00;1.00;;;;;11.97;71.98;102014.25;5055272;28;45212;-63
2023/01/04 00:27:25;;;;;;;;;4.67;2.00;;;;;11.94;72.69;102012.34;5050857;28;44972;-63
2023/01/04 00:29:50;;;;;;;;;3.00;3.00;;;;;11.95;71.88;102014.19;5051386;28;45708;-62
2023/01/04 00:32:16;;;;;;;;;3.00;2.00;;;;;12.02;72.90;102028.72;5049019;28;55948;-62
2023/01/04 00:34:41;;;;;;;;;1.00;1.00;;;;;12.02;73.19;102026.06;5050830;28;45133;-62
2023/01/04 00:37:08;;;;;;;;;1.00;1.00;;;;;11.95;73.03;102026.66;5037807;28;45046;-63
2023/01/04 00:39:33;;;;;;;;;2.00;2.00;;;;;12.01;73.12;102026.00;5046615;28;46235;-64
2023/01/04 00:42:03;;;;;;;;;2.00;1.67;;;;;11.93;73.29;102007.84;5037863;28;46899;-63
2023/01/04 00:44:30;;;;;;;;;2.00;2.00;;;;;12.00;72.99;102016.16;5050691;28;45247;-63
2023/01/04 00:46:56;;;;;;;;;4.00;3.00;;;;;11.87;73.08;101990.59;5038138;28;45096;-66
2023/01/04 00:49:22;;;;;;;;;3.00;2.00;;;;;11.96;72.20;102004.38;5045118;28;46327;-65
2023/01/04 00:51:47;;;;;;;;;4.00;3.00;;;;;11.96;72.76;101999.00;5048915;28;45232;-63
2023/01/04 00:54:14;;;;;;;;;2.00;2.00;;;;;12.03;73.19;102016.25;5038253;28;45322;-64
2023/01/04 00:56:39;;;;;;;;;2.33;2.00;;;;;11.88;72.51;101993.31;5046488;28;45204;-62
2023/01/04 00:59:04;;;;;;;;;2.00;2.00;;;;;11.97;73.12;102015.16;5046655;28;45275;-65
2023/01/04 01:01:32;;;;;;;;;3.00;3.00;;;;;11.96;72.92;102007.97;5047561;28;45129;-62
2023/01/04 01:03:59;;;;;;;;;6.00;2.00;;;;;12.00;73.61;102005.44;5049598;28;45083;-63
2023/01/04 01:06:26;;;;;;;;;2.00;2.00;;;;;11.92;73.72;101995.28;5044850;28;44978;-61
2023/01/04 01:08:52;;;;;;;;;4.67;3.67;;;;;11.98;73.23;101991.97;5048790;28;45912;-64
2023/01/04 01:11:19;;;;;;;;;6.67;3.67;;;;;11.93;73.89;101986.41;5048615;28;45105;-64
2023/01/04 01:13:45;;;;;;;;;4.00;2.67;;;;;11.93;73.50;101977.50;5048232;28;45367;-62
2023/01/04 01:16:14;;;;;;;;;2.67;2.67;;;;;11.87;73.28;101977.19;5049402;28;45395;-62
2023/01/04 01:18:41;;;;;;;;;2.00;2.00;;;;;11.90;74.52;101974.66;5046201;28;45761;-62
2023/01/04 01:21:10;;;;;;;;;2.00;2.00;;;;;11.91;74.23;101982.78;5047649;28;45348;-62
2023/01/04 01:23:35;;;;;;;;;3.00;3.00;;;;;11.82;74.48;101963.63;5045263;28;45431;-63
2023/01/04 01:26:07;;;;;;;;;2.67;2.00;;;;;11.83;73.97;101965.44;5048844;28;45098;-64
2023/01/04 01:28:34;;;;;;;;;3.00;1.67;;;;;11.91;74.02;101977.44;5049400;28;46536;-62
2023/01/04 01:31:33;;;;;;;;;4.67;2.00;;;;;11.93;73.39;101985.53;5050561;28;45171;-63
2023/01/04 01:34:00;;;;;;;;;3.67;3.67;;;;;11.93;73.98;101982.84;5023649;28;45311;-65
2023/01/04 01:36:26;;;;;;;;;4.00;2.67;;;;;11.92;74.03;101997.06;5043691;28;45038;-62
2023/01/04 01:38:53;;;;;;;;;2.00;2.00;;;;;11.91;74.50;101987.16;5049432;28;45748;-64
2023/01/04 01:41:24;;;;;;;;;4.00;2.33;;;;;11.91;73.52;101992.53;5042333;28;45192;-63
2023/01/04 01:44:24;;;;;;;;;3.33;3.33;;;;;11.92;74.31;101991.72;5048931;28;44950;-64
2023/01/04 01:46:52;;;;;;;;;4.00;2.00;;;;;11.92;73.48;101989.94;5046464;28;45224;-61
2023/01/04 01:49:26;;;;;;;;;2.67;2.33;;;;;11.91;74.65;101982.78;5048822;28;45438;-62
2023/01/04 01:51:57;;;;;;;;;4.00;2.67;;;;;11.85;74.13;101961.06;5035984;28;45203;-63
2023/01/04 01:54:27;;;;;;;;;2.67;2.67;;;;;11.96;74.64;101977.59;5041856;28;45093;-61
2023/01/04 01:56:56;;;;;;;;;4.67;3.00;;;;;11.97;73.89;101979.41;5048755;28;45157;-62
2023/01/04 01:59:22;;;;;;;;;5.67;2.67;;;;;11.99;73.84;101983.06;5048410;28;45932;-63
2023/01/04 02:01:48;;;;;;;;;3.00;2.00;;;;;11.96;73.87;101983.88;5048700;28;45089;-61
2023/01/04 02:04:15;;;;;;;;;4.00;2.00;;;;;11.84;73.87;101966.34;5029666;28;45410;-62
2023/01/04 02:06:52;;;;;;;;;3.33;2.67;;;;;11.85;74.01;101945.00;5047795;28;45452;-63
2023/01/04 02:09:18;;;;;;;;;3.67;2.67;;;;;11.97;74.70;101972.28;5028809;28;46987;-63
2023/01/04 02:11:44;;;;;;;;;2.67;2.33;;;;;11.86;74.18;101965.53;5036821;28;45066;-62
2023/01/04 02:14:26;;;;;;;;;5.33;1.00;;;;;11.90;73.87;101963.94;5043453;28;45293;-62
2023/01/04 02:16:51;;;;;;;;;5.67;1.67;;;;;12.01;74.50;101980.44;5026128;28;45350;-63
2023/01/04 02:19:41;;;;;;;;;4.67;2.00;;;;;12.01;73.67;101968.00;5048024;28;45968;-63
2023/01/04 02:22:28;;;;;;;;;4.00;2.00;;;;;11.97;73.55;101983.00;5047755;28;45292;-61
2023/01/04 02:25:07;;;;;;;;;1.00;1.00;;;;;11.92;74.00;101965.84;5040234;28;45126;-63
2023/01/04 02:27:48;;;;;;;;;1.33;1.33;;;;;11.99;73.91;101991.09;5040968;28;45298;-63
2023/01/04 02:30:40;;;;;;;;;4.33;3.00;;;;;12.00;73.90;101978.66;5046733;28;45165;-63
2023/01/04 02:33:12;;;;;;;;;1.00;1.00;;;;;12.00;73.52;101997.41;5052284;28;45367;-63
2023/01/04 02:35:58;;;;;;;;;2.00;2.00;;;;;11.97;74.27;101993.72;5052093;28;44873;-62
2023/01/04 02:38:45;;;;;;;;;2.00;2.00;;;;;11.98;73.50;101987.53;5051220;28;45214;-64
2023/01/04 02:41:13;;;;;;;;;4.67;3.00;;;;;11.96;74.26;101981.19;5034290;28;46349;-62
2023/01/04 02:46:38;;;;;;;;;8.33;2.00;;;;;11.88;74.39;101969.22;5047681;28;45044;-61
2023/01/04 02:51:47;;;;;;;;;2.67;1.00;;;;;12.05;73.21;101980.66;5044319;28;45306;-62
2023/01/04 02:54:18;;;;;;;;;2.00;2.00;;;;;12.07;73.35;101983.38;5050929;28;52482;-65
2023/01/04 02:56:46;;;;;;;;;3.00;1.00;;;;;12.08;74.16;101988.81;5046642;28;45218;-63
2023/01/04 02:59:35;;;;;;;;;3.00;3.00;;;;;12.09;74.28;101987.97;5045927;28;45145;-62
2023/01/04 03:08:07;;;;;;;;;2.33;2.33;;;;;12.05;73.63;101966.34;5048730;28;45383;-62
2023/01/04 03:10:35;;;;;;;;;4.00;2.00;;;;;12.16;73.03;101967.69;5050504;28;45021;-62
2023/01/04 03:13:22;;;;;;;;;2.00;1.33;;;;;12.17;72.89;101973.06;5037078;28;45463;-64
2023/01/04 03:15:53;;;;;;;;;1.00;1.00;;;;;12.10;73.62;101957.63;5039021;28;45437;-62
2023/01/04 03:18:24;;;;;;;;;1.33;1.33;;;;;12.08;73.37;101962.03;5049867;28;44964;-63
2023/01/04 03:20:52;;;;;;;;;2.00;1.00;;;;;12.15;73.51;101969.44;5049785;28;45368;-63
2023/01/04 03:37:49;;;;;;;;;1.00;1.00;;;;;12.05;73.03;101928.84;5049471;28;45256;-61
2023/01/04 03:49:22;;;;;;;;;2.00;0.00;;;;;12.18;73.47;101931.16;5031026;28;45111;-63
2023/01/04 03:51:53;;;;;;;;;0.00;0.00;;;;;12.23;73.54;101924.19;5051724;28;44931;-63
2023/01/04 03:54:24;;;;;;;;;1.00;1.00;;;;;12.24;73.70;101928.72;5051727;28;45123;-61
2023/01/04 03:56:52;;;;;;;;;2.33;0.00;;;;;12.27;73.61;101927.91;5046225;28;45829;-62
2023/01/04 03:59:21;;;;;;;;;3.33;2.00;;;;;12.21;73.84;101907.16;5049590;28;45348;-62
2023/01/04 04:01:47;;;;;;;;;1.00;1.00;;;;;12.32;72.98;101919.19;5032063;28;45252;-64
2023/01/04 04:09:40;;;;;;;;;1.00;1.00;;;;;12.35;73.32;101903.22;5049070;28;45339;-62
2023/01/04 04:12:06;;;;;;;;;0.67;0.67;;;;;12.27;73.86;101896.66;5037781;28;45538;-65
2023/01/04 04:14:31;;;;;;;;;2.00;1.00;;;;;12.28;73.09;101894.91;5049614;28;45197;-63
2023/01/04 04:16:56;;;;;;;;;2.67;1.67;;;;;12.28;73.16;101890.44;5046385;28;45811;-63
2023/01/04 04:19:22;;;;;;;;;2.00;2.00;;;;;12.21;72.93;101888.41;5047940;28;45112;-65
2023/01/04 04:21:47;;;;;;;;;1.33;1.33;;;;;12.38;73.20;101909.56;5043099;28;45301;-63
2023/01/04 04:24:19;;;;;;;;;4.33;3.00;;;;;12.41;73.84;101912.38;5049797;28;44872;-64
2023/01/04 04:26:44;;;;;;;;;3.33;1.33;;;;;12.34;74.12;101898.72;5050065;28;45974;-62
2023/01/04 04:29:09;;;;;;;;;3.00;2.00;;;;;12.41;74.07;101921.31;5050082;28;50317;-62
2023/01/04 04:31:35;;;;;;;;;3.00;2.00;;;;;12.41;73.49;101921.31;5049743;28;45113;-62
2023/01/04 04:34:00;;;;;;;;;1.00;1.00;;;;;12.34;74.15;101900.47;5032231;28;45202;-62
2023/01/04 04:36:25;;;;;;;;;1.00;1.00;;;;;12.31;74.18;101897.72;5032292;28;45412;-62
2023/01/04 04:38:51;;;;;;;;;0.67;0.00;;;;;12.35;73.98;101921.06;5039079;28;45354;-62
2023/01/04 04:44:00;;;;;;;;;3.00;0.67;;;;;12.25;74.75;101910.84;5038342;28;45028;-63
2023/01/04 04:46:26;;;;;;;;;1.33;1.00;;;;;12.31;74.84;101924.50;5048979;28;46036;-64
2023/01/04 04:48:51;;;;;;;;;1.00;1.00;;;;;12.24;74.96;101909.97;5049788;28;45140;-64
2023/01/04 04:51:17;;;;;;;;;1.00;0.33;;;;;12.28;74.77;101903.84;5050793;28;44903;-63
2023/01/04 04:53:42;;;;;;;;;2.00;2.00;;;;;12.34;74.90;101906.75;5041407;28;45186;-63
2023/01/04 04:56:08;;;;;;;;;3.00;1.00;;;;;12.35;74.75;101905.00;5044984;28;45617;-63
2023/01/04 04:58:33;;;;;;;;;3.00;1.00;;;;;12.34;75.15;101903.16;5043104;28;45178;-62
2023/01/04 05:00:59;;;;;;;;;2.00;2.00;;;;;12.38;75.04;101907.78;5040793;28;45240;-62
2023/01/04 05:03:24;;;;;;;;;1.00;1.00;;;;;11.94;74.23;101832.91;5052042;28;45141;-64
2023/01/04 05:05:49;;;;;;;;;2.67;2.00;;;;;12.41;74.38;101904.31;5051479;28;45970;-63
2023/01/04 05:08:15;;;;;;;;;1.00;1.00;;;;;12.36;74.43;101882.72;5044423;28;48681;-63
2023/01/04 05:10:40;;;;;;;;;2.67;1.00;;;;;12.41;74.52;101891.81;5048052;28;45006;-63
2023/01/04 05:13:09;;;;;;;;;1.00;1.00;;;;;12.43;74.63;101891.88;5044440;28;45368;-63
2023/01/04 05:15:42;;;;;;;;;1.33;1.00;;;;;12.40;74.45;101891.75;5051462;28;45273;-63
2023/01/04 05:18:09;;;;;;;;;1.00;1.00;;;;;12.43;74.83;101897.25;5043743;28;45020;-61
2023/01/04 05:20:35;;;;;;;;;1.33;1.33;;;;;12.35;75.30;101868.38;5048209;28;45254;-64
2023/01/04 05:23:00;;;;;;;;;0.67;0.33;;;;;12.34;74.62;101879.97;5051804;28;45023;-61
2023/01/04 05:25:26;;;;;;;;;2.00;1.00;;;;;12.43;74.13;101899.94;5048706;28;46274;-61
2023/01/04 05:27:52;;;;;;;;;3.00;2.00;;;;;12.38;75.10;101889.03;5033464;28;45389;-64
2023/01/04 05:33:02;;;;;;;;;3.67;2.00;;;;;12.43;74.61;101894.56;5051967;28;45129;-64
2023/01/04 05:35:28;;;;;;;;;4.00;2.00;;;;;12.46;74.76;101900.94;5013906;28;46185;-63
2023/01/04 05:37:53;;;;;;;;;2.67;2.33;;;;;12.41;74.52;101875.75;5048556;28;45116;-62
2023/01/04 05:40:20;;;;;;;;;1.00;1.00;;;;;12.53;75.13;101894.03;5037423;28;45097;-64
2023/01/04 05:42:46;;;;;;;;;2.67;2.00;;;;;12.52;74.56;101893.13;5041793;28;45420;-64
2023/01/04 05:45:13;;;;;;;;;2.67;2.00;;;;;12.52;74.78;101908.28;5047836;28;45559;-63
2023/01/04 05:47:38;;;;;;;;;1.00;1.00;;;;;12.51;74.59;101893.97;5027023;28;45491;-63
2023/01/04 05:50:04;;;;;;;;;4.00;4.00;;;;;12.54;74.90;101902.16;5043259;28;45189;-63
2023/01/04 05:52:30;;;;;;;;;0.00;0.00;;;;;12.56;75.54;101909.34;5049832;28;45136;-62
2023/01/04 05:54:55;;;;;;;;;0.67;0.67;;;;;12.33;75.54;101856.69;5048771;28;45758;-64
2023/01/04 05:57:21;;;;;;;;;2.00;1.00;;;;;12.55;74.79;101895.00;5049114;28;45057;-63
2023/01/04 05:59:46;;;;;;;;;1.00;1.00;;;;;12.50;75.56;101884.09;5038827;28;45161;-64
2023/01/04 06:02:15;;;;;;;;;4.00;1.00;;;;;12.59;75.80;101898.69;5046264;28;45133;-63
2023/01/04 06:04:41;;;;;;;;;1.00;1.00;;;;;12.50;75.68;101902.88;5046722;28;45992;-62
2023/01/04 06:07:06;;;;;;;;;2.00;1.00;;;;;12.58;75.13;101916.56;5040780;28;44905;-61
2023/01/04 06:09:31;;;;;;;;;1.33;1.00;;;;;12.59;76.24;101917.47;5050213;28;45488;-62
2023/01/04 06:11:57;;;;;;;;;2.00;0.00;;;;;12.55;76.01;101913.75;5051434;28;45400;-63
2023/01/04 06:14:22;;;;;;;;;1.00;1.00;;;;;12.53;76.42;101905.66;5033745;28;47324;-62
2023/01/04 06:16:47;;;;;;;;;3.00;3.00;;;;;12.57;75.71;101900.41;5043736;28;45054;-63
2023/01/04 06:19:12;;;;;;;;;1.00;1.00;;;;;12.53;76.07;101889.59;5044489;28;48030;-63
2023/01/04 06:21:38;;;;;;;;;0.33;0.33;;;;;12.59;75.94;101899.63;5035091;28;45617;-64
2023/01/04 06:24:03;;;;;;;;;0.67;0.67;;;;;12.53;75.66;101883.31;5045647;28;45986;-64
2023/01/04 06:26:29;;;;;;;;;1.33;1.00;;;;;12.53;76.04;101884.22;5050082;28;45191;-62
2023/01/04 06:28:54;;;;;;;;;2.00;2.00;;;;;12.61;75.33;101902.38;5030643;28;52083;-62
2023/01/04 06:31:19;;;;;;;;;2.00;1.00;;;;;12.59;75.08;101886.22;5027228;28;45469;-63
2023/01/04 06:33:45;;;;;;;;;1.00;1.00;;;;;12.59;75.58;101888.91;5037740;28;47208;-65
2023/01/04 06:36:10;;;;;;;;;1.67;1.67;;;;;12.48;75.87;101874.19;5049731;28;45061;-64
2023/01/04 06:38:36;;;;;;;;;3.00;1.67;;;;;12.59;76.73;101888.91;5049708;28;45145;-62
2023/01/04 06:41:01;;;;;;;;;1.00;1.00;;;;;12.58;76.07;101894.22;5042473;28;45231;-63
2023/01/04 06:43:27;;;;;;;;;2.33;1.67;;;;;12.58;76.23;101892.44;5045066;28;45503;-63
2023/01/04 06:45:53;;;;;;;;;4.33;3.00;;;;;12.41;76.58;101889.16;5014238;28;45154;-65
2023/01/04 06:48:18;;;;;;;;;0.00;0.00;;;;;12.56;77.31;101904.88;5042590;28;44911;-64
2023/01/04 06:50:44;;;;;;;;;1.00;1.00;;;;;12.56;76.96;101901.31;5053719;28;45192;-63
2023/01/04 06:53:09;;;;;;;;;1.00;1.00;;;;;12.54;77.06;101914.66;5051472;28;45184;-63
2023/01/04 06:55:35;;;;;;;;;1.00;1.00;;;;;12.49;76.82;101910.88;5048798;28;45025;-64
2023/01/04 06:58:00;;;;;;;;;2.00;1.00;;;;;12.39;77.66;101895.28;5027016;28;45441;-62
2023/01/04 07:00:26;;;;;;;;;1.33;1.33;;;;;12.54;77.29;101920.91;5048689;28;45290;-63
2023/01/04 07:02:51;;;;;;;;;2.00;0.00;;;;;12.54;76.97;101910.19;5018579;28;46384;-63
2023/01/04 07:05:17;;;;;;;;;2.00;0.33;;;;;12.45;77.20;101884.81;5040174;28;48605;-64
2023/01/04 07:07:42;;;;;;;;;0.33;0.33;;;;;12.45;77.38;101883.03;5039894;28;45522;-62
2023/01/04 07:10:08;;;;;;;;;3.00;1.00;;;;;12.62;76.48;101894.38;5032495;28;45644;-65
2023/01/04 07:12:33;;;;;;;;;1.67;1.67;;;;;12.65;76.49;101896.25;5051024;28;46179;-64
2023/01/04 07:14:59;;;;;;;;;1.67;1.67;;;;;12.68;76.88;101908.00;5048195;28;45118;-66
2023/01/04 07:17:24;;;;;;;;;2.00;2.00;;;;;12.59;77.07;101896.97;5042789;28;45125;-63
2023/01/04 07:19:50;;;;;;;;;3.67;3.00;;;;;12.61;76.07;101884.50;5039037;28;45013;-65
2023/01/04 07:22:15;;;;;;;;;3.00;2.00;;;;;12.65;75.90;101890.88;5038977;28;45866;-65
2023/01/04 07:24:42;;;;;;;;;1.00;1.00;;;;;12.77;76.05;101893.09;5048414;28;45185;-67
2023/01/04 07:27:08;;;;;;;;;1.00;1.00;;;;;12.70;76.34;101879.50;5029476;28;45125;-62
2023/01/04 07:29:34;;;;;;;;;2.00;2.00;;;;;12.80;75.70;101894.16;5050602;28;45115;-66
2023/01/04 07:31:59;;;;;;;;;3.00;1.00;;;;;12.85;75.42;101899.66;5042691;28;45414;-65
2023/01/04 07:34:26;;;;;;;;;2.67;2.67;;;;;12.87;75.59;101904.22;5034631;28;45382;-66
2023/01/04 07:36:51;;;;;;;;;4.00;2.67;;;;;12.86;75.16;101910.44;5035332;28;45431;-62
2023/01/04 07:39:17;;;;;;;;;1.33;1.33;;;;;12.86;75.69;101907.75;5039081;28;44937;-64
2023/01/04 07:41:43;;;;;;;;;2.33;0.67;;;;;12.87;75.24;101908.69;5040682;28;45592;-67
2023/01/04 07:44:10;;;;;;;;;3.00;1.00;;;;;12.89;74.85;101920.38;5047239;28;45044;-64
2023/01/04 07:46:36;;;;;;;;;1.67;0.33;;;;;12.86;75.69;101917.56;5037272;28;45178;-64
2023/01/04 07:49:06;;;;;;;;;1.00;1.00;;;;;12.84;75.19;101913.94;5040997;28;45099;-64
2023/01/04 07:51:32;;;;;;;;;2.33;1.00;;;;;12.88;75.27;101919.44;5038839;28;45379;-64
2023/01/04 07:53:58;;;;;;;;;1.00;1.00;;;;;12.86;75.91;101904.16;5045425;28;45418;-63
2023/01/04 07:56:24;;;;;;;;;2.67;2.67;;;;;12.87;75.34;101895.28;5044704;28;45500;-65
2023/01/04 07:58:49;;;;;;;;;1.33;1.33;;;;;12.92;74.95;101907.06;5043655;28;45096;-65
2023/01/04 08:01:17;;;;;;;;;2.00;2.00;;;;;12.98;75.20;101911.72;5046358;28;45432;-62
2023/01/04 08:03:46;;;;;;;;;2.33;2.00;;;;;12.99;75.34;101905.53;5054211;28;45060;-63
2023/01/04 08:06:14;;;;;;;;;1.67;1.67;;;;;12.98;75.48;101909.94;5038999;28;44916;-64
2023/01/04 08:08:41;;;;;;;;;4.00;0.00;;;;;13.05;75.23;101920.06;5044076;28;45262;-63
2023/01/04 08:11:09;;;;;;;;;3.67;3.67;;;;;12.98;75.71;101896.53;5047895;28;45692;-62
2023/01/04 08:13:35;;;;;;;;;3.33;3.33;;;;;13.02;75.58;101901.16;5051839;28;45199;-63
2023/01/04 08:16:00;;;;;;;;;0.00;0.00;;;;;13.04;75.05;101890.50;5048313;28;45535;-63
2023/01/04 08:18:25;;;;;;;;;2.00;2.00;;;;;13.04;75.48;101887.81;5045460;28;45072;-65
2023/01/04 08:21:07;;;;;;;;;3.00;3.00;;;;;13.07;75.75;101890.59;5050741;28;45754;-65
2023/01/04 08:23:34;;;;;;;;;2.00;2.00;;;;;13.15;76.25;101915.00;5045453;28;45227;-64
2023/01/04 08:26:09;;;;;;;;;3.00;3.00;;;;;13.16;75.46;101900.72;5037231;28;44961;-64
2023/01/04 08:28:35;;;;;;;;;2.00;2.00;;;;;13.11;75.44;101888.94;5030089;28;45595;-63
2023/01/04 08:31:10;;;;;;;;;4.00;2.33;;;;;13.06;75.21;101884.28;5047320;28;45517;-65
2023/01/04 08:33:37;;;;;;;;;1.67;1.33;;;;;13.18;74.79;101899.00;5032933;28;45255;-65
2023/01/04 08:36:24;;;;;;;;;2.00;2.00;;;;;13.16;75.21;101892.69;5024338;28;44853;-64
2023/01/04 08:38:51;;;;;;;;;4.67;2.00;;;;;13.18;75.23;101899.94;5034425;28;45220;-65
2023/01/04 08:41:17;;;;;;;;;2.67;2.00;;;;;13.18;75.51;101896.31;5029232;28;45734;-63
2023/01/04 08:43:44;;;;;;;;;2.00;2.00;;;;;13.14;75.29;101898.00;5023389;28;45478;-63
2023/01/04 08:46:11;;;;;;;;;4.00;2.67;;;;;13.22;75.41;101906.31;5029533;28;45546;-63
2023/01/04 08:48:37;;;;;;;;;4.33;2.67;;;;;13.23;74.80;101930.53;5018168;28;45611;-62
2023/01/04 08:51:15;;;;;;;;;3.00;1.33;;;;;13.23;75.28;101908.13;5020392;28;46183;-64
2023/01/04 08:53:40;;;;;;;;;2.00;2.00;;;;;13.27;75.15;101915.44;5027020;28;45685;-69
2023/01/04 08:56:06;;;;;;;;;1.00;1.00;;;;;13.17;74.98;101898.09;5033918;28;45549;-66
2023/01/04 08:58:33;;;;;;;;;3.00;1.67;;;;;13.27;74.75;101916.31;5025815;28;45602;-63
2023/01/04 09:01:10;;;;;;;;;2.00;2.00;;;;;13.27;74.84;101915.44;5016257;28;46119;-63
2023/01/04 09:03:36;;;;;;;;;2.33;1.67;;;;;13.25;74.99;101920.75;5025109;28;45579;-66
2023/01/04 09:06:11;;;;;;;;;1.67;1.67;;;;;13.28;75.76;101917.22;5024119;28;45718;-65
2023/01/04 09:08:38;;;;;;;;;2.00;2.00;;;;;13.28;75.38;101912.81;5017515;28;45508;-62
2023/01/04 09:11:11;;;;;;;;;1.00;1.00;;;;;13.25;75.58;101899.28;5025091;28;45458;-63
2023/01/04 09:13:37;;;;;;;;;1.67;1.00;;;;;13.31;75.50;101900.34;5033223;28;45757;-62
2023/01/04 09:16:05;;;;;;;;;1.00;1.00;;;;;13.33;75.26;101894.22;5024630;28;45517;-64
2023/01/04 09:18:32;;;;;;;;;3.50;1.00;;;;;13.34;75.37;101895.09;5026614;28;45476;-63
2023/01/04 09:20:57;;;;;;;;;1.00;1.00;;;;;13.34;75.49;101900.47;5003475;28;46312;-61
2023/01/04 09:23:23;;;;;;;;;2.00;2.00;;;;;13.26;76.14;101893.06;5024683;28;45557;-63
2023/01/04 09:25:49;;;;;;;;;1.00;1.00;;;;;13.29;75.89;101889.53;5026065;28;45837;-65
2023/01/04 09:28:14;;;;;;;;;1.00;1.00;;;;;13.29;75.98;101892.22;5028925;28;45694;-64
2023/01/04 09:30:40;;;;;;;;;2.67;1.67;;;;;13.27;75.77;101883.22;5020368;28;47165;-64
2023/01/04 09:33:05;;;;;;;;;2.00;2.00;;;;;13.28;75.67;101880.59;4999539;28;46753;-63
2023/01/04 09:35:31;;;;;;;;;3.00;2.00;;;;;13.31;75.42;101871.72;5018924;28;45534;-62
2023/01/04 09:37:56;;;;;;;;;3.00;1.00;;;;;13.38;75.27;101892.59;5020329;28;45424;-62
2023/01/04 09:40:30;;;;;;;;;2.00;0.67;;;;;13.38;75.73;101894.34;5026111;28;45802;-64
2023/01/04 09:42:57;;;;;;;;;1.33;1.33;;;;;13.38;75.70;101884.53;5012221;28;45719;-64
2023/01/04 09:45:25;;;;;;;;;1.67;1.00;;;;;13.33;75.44;101877.16;5029040;28;45614;-63
2023/01/04 09:47:58;;;;;;;;;3.00;1.33;;;;;13.38;75.87;101884.53;5035244;28;45579;-62
2023/01/04 09:50:54;;;;;;;;;1.00;1.00;;;;;13.37;75.52;101888.06;5023559;28;48532;-65
2023/01/04 09:53:32;;;;;;;;;1.67;1.00;;;;;13.38;75.09;101873.78;5037911;28;45490;-61
2023/01/04 09:56:32;;;;;;;;;1.33;1.33;;;;;13.48;75.27;101899.16;5035890;28;45427;-63
2023/01/04 09:59:00;;;;;;;;;5.67;2.00;;;;;13.51;75.08;101906.41;5025195;28;45277;-65
2023/01/04 10:01:43;;;;;;;;;2.00;2.00;;;;;13.54;75.59;101920.81;5031827;28;46644;-64
2023/01/04 10:04:26;;;;;;;;;2.00;2.00;;;;;13.53;75.18;101910.97;5036589;28;45466;-64
2023/01/04 10:06:52;;;;;;;;;2.00;2.00;;;;;13.47;74.80;101888.38;5025374;28;45405;-63
2023/01/04 10:09:17;;;;;;;;;4.00;1.00;;;;;13.57;74.95;101904.81;5016529;28;45718;-68
2023/01/04 10:12:18;;;;;;;;;2.33;2.33;;;;;13.60;74.82;101901.34;5036397;28;45593;-67
2023/01/04 10:15:13;;;;;;;;;2.33;2.33;;;;;13.62;74.51;101913.94;5008343;28;45629;-65
2023/01/04 10:18:01;;;;;;;;;2.00;2.00;;;;;13.61;74.62;101903.13;5039031;28;45214;-64
2023/01/04 10:20:48;;;;;;;;;8.00;3.33;;;;;13.62;75.27;101910.34;5020502;28;46375;-63
2023/01/04 10:23:23;;;;;;;;;1.00;1.00;;;;;13.54;74.30;101899.34;5026747;28;45642;-62
2023/01/04 10:25:56;;;;;;;;;1.00;1.00;;;;;13.61;74.61;101898.72;5027696;28;46700;-66
2023/01/04 10:28:36;;;;;;;;;3.33;2.33;;;;;13.64;74.84;101909.56;5034881;28;45418;-67
2023/01/04 10:31:19;;;;;;;;;0.33;0.33;;;;;13.69;74.56;101920.41;5031095;28;45545;-64
2023/01/04 10:33:48;;;;;;;;;5.00;3.33;;;;;13.69;74.40;101908.78;5030404;28;46385;-63
2023/01/04 10:36:19;;;;;;;;;2.00;1.00;;;;;13.64;74.23;101897.88;5026087;28;45313;-64
2023/01/04 10:38:48;;;;;;;;;3.00;3.00;;;;;13.51;74.25;101874.19;5025802;28;45560;-65
2023/01/04 10:41:20;;;;;;;;;3.00;2.67;;;;;13.69;74.37;101909.66;5032830;28;45739;-63
2023/01/04 10:44:27;;;;;;;;;2.00;2.00;;;;;13.62;74.35;101896.91;5021702;28;46540;-61
2023/01/04 10:47:07;;;;;;;;;2.67;1.67;;;;;13.67;74.34;101907.81;5030540;28;45604;-63
2023/01/04 10:49:57;;;;;;;;;5.67;5.00;;;;;13.59;74.52;101889.66;5024274;28;45357;-61
2023/01/04 10:52:43;;;;;;;;;6.00;3.67;;;;;13.64;74.51;101904.19;5043311;28;46431;-64
2023/01/04 10:55:35;;;;;;;;;1.67;1.67;;;;;13.61;74.76;101901.38;5045929;28;45560;-63
2023/01/04 10:58:13;;;;;;;;;2.33;2.33;;;;;13.62;74.76;101899.59;5039717;28;45472;-61
2023/01/04 11:00:55;;;;;;;;;2.00;2.00;;;;;13.64;75.18;101898.81;5049633;28;45383;-60
2023/01/04 11:03:26;;;;;;;;;2.67;2.67;;;;;13.65;75.27;101902.41;5019372;28;45431;-63
2023/01/04 11:06:17;;;;;;;;;2.33;2.33;;;;;13.54;75.76;101876.97;5022582;28;47453;-66
2023/01/04 11:08:56;;;;;;;;;5.00;4.00;;;;;13.61;75.35;101896.03;5026580;28;45467;-64
2023/01/04 11:11:27;;;;;;;;;5.00;3.00;;;;;13.58;75.15;101879.81;5030615;28;45268;-63
2023/01/04 11:13:52;;;;;;;;;6.00;5.00;;;;;13.64;75.70;101889.81;5025486;28;45530;-62
2023/01/04 11:16:18;;;;;;;;;7.33;5.00;;;;;13.65;75.38;101891.66;5030407;28;45549;-62
2023/01/04 11:18:47;;;;;;;;;4.67;4.67;;;;;13.62;75.27;101880.81;5035077;28;45261;-63
2023/01/04 11:21:15;;;;;;;;;6.00;6.00;;;;;13.65;75.80;101888.97;5017931;28;45443;-61
2023/01/04 11:23:41;;;;;;;;;4.00;2.67;;;;;13.66;75.10;101887.19;5016884;28;45688;-62
2023/01/04 11:26:24;;;;;;;;;3.67;3.67;;;;;13.65;75.65;101891.66;5030889;28;46649;-63
2023/01/04 11:28:55;;;;;;;;;5.33;2.00;;;;;13.66;75.57;101876.44;5035607;28;45465;-65
2023/01/04 11:31:44;;;;;;;;;6.33;3.67;;;;;13.66;75.22;101869.31;5034917;28;48009;-64
2023/01/04 11:34:10;;;;;;;;;3.00;3.00;;;;;13.62;75.29;101865.59;5033481;28;45505;-63
2023/01/04 11:36:39;;;;;;;;;2.67;2.00;;;;;13.67;75.58;101871.13;5035254;28;46209;-67
2023/01/04 11:39:19;;;;;;;;;3.00;3.00;;;;;13.64;76.32;101869.28;5014519;28;45477;-64
2023/01/04 11:42:03;;;;;;;;;4.00;2.67;;;;;13.64;76.23;101865.66;5019300;28;45678;-64
2023/01/04 11:44:30;;;;;;;;;3.67;3.67;;;;;13.67;77.05;101859.47;5035477;28;45414;-64
2023/01/04 11:47:15;;;;;;;;;8.00;3.33;;;;;13.68;76.96;101862.22;5009925;28;45719;-63
2023/01/04 11:49:41;;;;;;;;;5.67;5.67;;;;;13.59;76.76;101843.13;5034060;28;45655;-64
2023/01/04 11:52:26;;;;;;;;;3.67;2.33;;;;;13.62;76.81;101846.81;5032782;28;45600;-68
2023/01/04 11:54:51;;;;;;;;;3.00;3.00;;;;;13.69;77.01;101863.13;5031456;28;45268;-70
2023/01/04 11:57:18;;;;;;;;;9.33;5.67;;;;;13.68;76.67;101842.47;5008215;28;46308;-63
2023/01/04 11:59:43;;;;;;;;;4.33;4.00;;;;;13.65;76.93;101835.25;5032568;28;45543;-64
2023/01/04 12:02:15;;;;;;;;;5.00;3.67;;;;;13.68;76.72;101839.78;5010136;28;45634;-62
2023/01/04 12:04:41;;;;;;;;;9.33;6.00;;;;;13.61;76.77;101825.28;5035587;28;45586;-62
2023/01/04 12:07:24;;;;;;;;;4.00;2.00;;;;;13.51;77.16;101807.06;5028235;28;45421;-63
2023/01/04 12:09:49;;;;;;;;;3.33;3.33;;;;;13.70;76.83;101835.41;5007753;28;45565;-64
2023/01/04 12:12:15;;;;;;;;;6.33;5.33;;;;;13.71;76.96;101834.53;5039785;28;45290;-64
2023/01/04 12:14:46;;;;;;;;;3.67;3.67;;;;;13.72;76.85;101833.66;5037513;28;45619;-63
2023/01/04 12:17:24;;;;;;;;;27.00;27.00;;;;;13.53;77.12;101797.28;5016379;28;46758;-64
2023/01/04 12:19:54;;;;;;;;;11.67;8.67;;;;;13.80;77.07;101838.41;5025501;28;45702;-65
2023/01/04 12:22:32;;;;;;;;;7.67;7.33;;;;;13.81;77.47;101842.94;5010707;28;45781;-63